Madrid, Spain

04:58 PM CEST on Augusti 19, 2018 (GMT +0200)
LAS ROSAS | | Change Station

Elev 2280 ft 40.42 °N, 3.61 °W | Updated 7 seconds ago

Partly Cloudy
Växlande molnighet
91.2 °F
Feels Like 90 °F
N
3.6
Vind Växlande Vind from O/NO
Gusts 4.9 miles/tim

Idag
High -- | Low -- °F
--% Chance of Precip.
Yesterday
High -- | Low -- °F
Precip. -- tum
Lufttryck 30.12 tum
Sikt 6.2 miles
Molnigt Few 5000 ft
Värmeindex 90 °F
Daggpunkt 56 °F
Luftfuktighet 31%
Rainfall 0.00 tum
Snow Depth Not available.
7:28 AM 9:06 PM
Andra kvarteret, 63% visible
METAR LEMD 191430Z 18002KT 9999 FEW050 32/13 Q1020 NOSIG
Lufttryck 30.12 tum
Sikt 6.2 miles
Molnigt Few 5000 ft
Värmeindex 90 °F
Daggpunkt 56 °F
Luftfuktighet 31%
Rainfall 0.00 tum
Snow Depth Not available.
7:28 AM 9:06 PM
Andra kvarteret, 63% visible
METAR LEMD 191430Z 18002KT 9999 FEW050 32/13 Q1020 NOSIG

Get Severe Weather Alerts

Thanks for signing up!

Be on the lookout for a verification email in your inbox.

You'll start receiving the daily forecast at 6 AM.

×

10-Day Weather Forecast

×

Almanac

Astronomi

Aug. 19, 2018 Rise Set
Actual Time
Civil Twilight
Nautical Twilight
Astronomical Twilight
Månen
Length Of Visible Light
Dagens längd
Tomorrow will be .
, % of the Moon is Illuminated

Today's Extremes

Country Highs Country Lows

Community

WunderPhotos

Category 6

Welcome to Category 6. This is the collective home for Weather Underground's featured writeups by Dr. Jeff Masters (right), Bob Henson (left), Chris Burt, and other regular contributors.

Nearby

Air Quality

  Air Quality AQ Index Pollutant
Not available.

Snödjup

Station Depth Elevation

Earthquake Activity

Stad Distance Mag. Time & Date
Minimum magnitude displayed is 2.5.

Coastal Water Temperatures

Plats Temperatur

Stations

Nearby Weather Stations

Station Location Temp Vindavkylning Daggpunkt Luftfuktighet Vind Precip. Elev Uppdaterad Type